Time;durP1;ratioP1;P1;durP2;ratioP2;P2;SDS_P1;SDS_P2;PMS_P1;PMS_P2;Temp;Humidity;BMP_temperature;BMP_pressure;BME280_temperature;BME280_humidity;BME280_pressure;Samples;Min_cycle;Max_cycle;Signal;HPM_P1;HPM_P2
2022/10/17 00:01:35;;;;;;;;;8.25;8.25;;;;;19.75;86.70;101067.53;5080330;28;45316;-72
2022/10/17 00:04:00;;;;;;;;;7.75;7.75;;;;;20.08;86.42;101121.41;5080305;28;45588;-72
2022/10/17 00:06:26;;;;;;;;;13.50;10.00;;;;;20.06;85.98;101116.13;5076004;28;45448;-73
2022/10/17 00:08:51;;;;;;;;;8.00;8.00;;;;;19.92;86.53;101097.63;5078926;28;45459;-72
2022/10/17 00:11:22;;;;;;;;;10.25;9.00;;;;;20.07;86.54;101116.97;5079122;28;47050;-72
2022/10/17 00:13:49;;;;;;;;;7.00;7.00;;;;;20.07;85.85;101123.28;5079778;28;45472;-72
2022/10/17 00:16:23;;;;;;;;;10.25;9.50;;;;;20.04;86.19;101123.53;5080323;27;45289;-72
2022/10/17 00:18:48;;;;;;;;;9.00;9.00;;;;;20.02;85.94;101125.56;5073338;27;45324;-72
2022/10/17 00:21:18;;;;;;;;;11.50;9.50;;;;;20.05;85.70;101127.13;5076875;27;45999;-72
2022/10/17 00:23:45;;;;;;;;;9.00;9.00;;;;;20.04;85.44;101120.84;5077318;27;45326;-72
2022/10/17 00:26:10;;;;;;;;;10.50;9.25;;;;;20.07;85.69;101125.09;5076651;28;45349;-72
2022/10/17 00:28:35;;;;;;;;;8.75;7.50;;;;;20.00;85.42;101116.69;5074620;28;45460;-72
2022/10/17 00:31:03;;;;;;;;;7.50;7.50;;;;;20.08;85.31;101135.81;5071053;28;45415;-72
2022/10/17 00:33:29;;;;;;;;;11.00;8.75;;;;;20.09;85.72;101142.91;5075702;28;46353;-72
2022/10/17 00:36:12;;;;;;;;;7.00;7.00;;;;;19.91;85.25;101106.75;5076780;27;45439;-72
2022/10/17 00:38:38;;;;;;;;;7.50;6.50;;;;;20.07;85.49;101139.53;5076619;27;45425;-73
2022/10/17 00:41:05;;;;;;;;;11.50;8.50;;;;;20.07;85.21;101138.66;5071573;28;46108;-72
2022/10/17 00:43:52;;;;;;;;;8.50;8.00;;;;;20.09;84.92;101132.09;5065313;28;46225;-73
2022/10/17 00:46:19;;;;;;;;;7.50;6.50;;;;;20.11;84.88;101140.06;5076120;28;45416;-73
2022/10/17 00:48:45;;;;;;;;;7.50;5.75;;;;;19.32;84.85;101025.53;5076211;27;45440;-72
2022/10/17 00:51:10;;;;;;;;;8.00;8.00;;;;;20.09;85.04;101134.78;5075833;28;46083;-73
2022/10/17 00:53:38;;;;;;;;;6.25;6.25;;;;;20.07;84.77;101134.09;5076117;27;45370;-73
2022/10/17 00:56:04;;;;;;;;;9.00;8.00;;;;;20.06;84.34;101132.38;5066563;27;45385;-73
2022/10/17 00:58:29;;;;;;;;;8.25;7.00;;;;;20.06;84.58;101134.25;5074725;28;45370;-73
2022/10/17 01:00:55;;;;;;;;;8.75;7.50;;;;;20.09;84.29;101131.25;5076139;28;45704;-73
2022/10/17 01:03:20;;;;;;;;;8.00;7.50;;;;;19.67;84.57;101051.16;5075104;28;45227;-72
2022/10/17 01:05:46;;;;;;;;;10.50;10.50;;;;;19.96;83.98;101113.44;5072615;28;45832;-73
2022/10/17 01:08:13;;;;;;;;;7.75;7.75;;;;;20.11;84.45;101140.94;5068694;28;45620;-72
2022/10/17 01:10:56;;;;;;;;;9.75;9.00;;;;;20.11;84.37;101142.78;5075985;28;46392;-73
2022/10/17 01:13:26;;;;;;;;;6.50;6.25;;;;;20.09;84.36;101125.84;5076212;28;45346;-72
2022/10/17 01:16:13;;;;;;;;;7.50;5.75;;;;;20.08;84.37;101119.56;5076946;28;45345;-72
2022/10/17 01:18:47;;;;;;;;;6.00;6.00;;;;;20.07;83.65;101127.81;5074544;28;45249;-72
2022/10/17 01:21:21;;;;;;;;;7.00;7.00;;;;;20.05;84.16;101130.66;5065094;28;46257;-72
2022/10/17 01:24:08;;;;;;;;;7.00;7.00;;;;;20.04;84.30;101120.84;5065257;28;45480;-72
2022/10/17 01:26:49;;;;;;;;;7.00;5.75;;;;;20.05;84.30;101137.94;5075793;28;45343;-72
2022/10/17 01:29:26;;;;;;;;;7.50;7.50;;;;;20.05;84.28;101152.34;5073436;27;45451;-72
2022/10/17 01:32:00;;;;;;;;;8.75;7.50;;;;;20.02;84.29;101146.38;5063514;28;46140;-72
2022/10/17 01:34:42;;;;;;;;;7.00;7.00;;;;;20.04;84.40;101150.63;5054665;28;45296;-72
2022/10/17 01:37:20;;;;;;;;;7.25;7.25;;;;;20.04;84.61;101156.03;5055320;28;45433;-72
2022/10/17 01:39:51;;;;;;;;;7.00;7.00;;;;;19.99;83.93;101132.09;5055061;28;45402;-72
2022/10/17 01:42:25;;;;;;;;;8.50;8.50;;;;;20.06;83.97;101159.47;5060291;28;45470;-72
2022/10/17 01:45:01;;;;;;;;;6.25;6.25;;;;;20.08;84.54;101173.72;5065991;28;45443;-72
2022/10/17 01:47:30;;;;;;;;;9.25;7.50;;;;;19.73;84.17;101120.97;5075490;28;45530;-72
2022/10/17 01:50:04;;;;;;;;;8.50;8.50;;;;;20.04;84.03;101164.16;5075835;27;45557;-72
2022/10/17 01:52:42;;;;;;;;;8.25;8.00;;;;;20.02;84.56;101173.44;5075389;27;46687;-71
2022/10/17 01:55:17;;;;;;;;;8.50;8.50;;;;;19.99;84.28;101166.47;5062372;27;45516;-71
2022/10/17 01:57:48;;;;;;;;;8.75;8.75;;;;;19.97;84.36;101174.69;5075138;28;45491;-71
2022/10/17 02:00:18;;;;;;;;;9.00;6.75;;;;;19.94;84.33;101166.88;5075298;28;45323;-71
2022/10/17 02:02:47;;;;;;;;;8.00;8.00;;;;;19.93;84.54;101169.72;5074729;28;46624;-71
2022/10/17 02:05:12;;;;;;;;;8.75;7.00;;;;;19.91;84.16;101167.16;5068561;27;45592;-71
2022/10/17 02:07:40;;;;;;;;;8.25;8.25;;;;;19.40;84.43;101081.63;5057192;28;45435;-71
2022/10/17 02:10:12;;;;;;;;;10.50;8.75;;;;;19.50;83.98;101096.88;5087140;27;45598;-71
2022/10/17 02:13:28;;;;;;;;;6.25;5.50;;;;;19.87;84.51;101159.44;5054083;28;46299;-71
2022/10/17 02:16:02;;;;;;;;;6.50;6.50;;;;;19.86;84.41;101182.13;5010396;28;45805;-71
2022/10/17 02:18:49;;;;;;;;;6.25;6.25;;;;;19.84;84.17;101171.44;4994584;28;45423;-71
2022/10/17 02:21:47;;;;;;;;;7.75;6.00;;;;;19.81;84.13;101172.56;5011102;28;45443;-71
2022/10/17 02:24:35;;;;;;;;;6.50;6.50;;;;;19.81;84.56;101163.59;4983579;28;47346;-70
2022/10/17 02:27:22;;;;;;;;;6.50;6.50;;;;;19.66;84.43;101147.75;4948044;28;45524;-71
2022/10/17 02:29:57;;;;;;;;;6.00;6.00;;;;;19.79;83.83;101150.16;4927768;28;45612;-71
2022/10/17 02:32:33;;;;;;;;;8.50;7.50;;;;;19.76;84.25;101147.75;4951663;28;45451;-73
2022/10/17 02:35:00;;;;;;;;;6.25;5.25;;;;;19.04;83.83;101029.91;4952695;28;45477;-72
2022/10/17 02:37:28;;;;;;;;;7.25;7.25;;;;;19.74;83.83;101144.31;4952852;28;45394;-71
2022/10/17 02:39:57;;;;;;;;;9.00;6.75;;;;;19.39;84.10;101091.59;4952965;28;45416;-73
2022/10/17 02:42:24;;;;;;;;;8.75;6.75;;;;;19.72;83.21;101145.44;4946490;28;45501;-73
2022/10/17 02:44:53;;;;;;;;;9.25;7.75;;;;;19.72;83.47;101151.72;4934079;28;46231;-73
2022/10/17 02:47:29;;;;;;;;;7.25;7.25;;;;;19.74;83.62;101162.41;4932863;28;45436;-72
2022/10/17 02:49:57;;;;;;;;;7.00;6.00;;;;;19.74;83.53;101155.13;4932630;28;45366;-72
2022/10/17 02:52:33;;;;;;;;;7.50;7.50;;;;;19.76;83.13;101155.88;4986874;28;45683;-72
2022/10/17 02:55:12;;;;;;;;;5.25;4.50;;;;;19.68;82.98;101150.31;5010503;28;46159;-72
2022/10/17 02:57:41;;;;;;;;;7.00;7.00;;;;;19.82;82.75;101165.28;5010003;28;45457;-72
2022/10/17 03:00:10;;;;;;;;;5.50;4.25;;;;;19.83;82.60;101162.44;5009582;28;45532;-72
2022/10/17 03:02:47;;;;;;;;;5.00;5.00;;;;;19.09;82.04;101042.00;5009736;28;45416;-72
2022/10/17 03:05:17;;;;;;;;;7.75;7.75;;;;;19.79;82.05;101157.44;5071740;28;46575;-72
2022/10/17 03:07:43;;;;;;;;;6.50;6.50;;;;;19.80;82.04;101153.75;5073244;27;45341;-72
2022/10/17 03:10:08;;;;;;;;;5.75;5.75;;;;;19.49;81.53;101102.44;5074499;27;45347;-72
2022/10/17 03:12:33;;;;;;;;;6.25;6.25;;;;;19.78;81.42;101156.56;5074537;27;45346;-72
2022/10/17 03:14:59;;;;;;;;;7.75;6.75;;;;;19.78;80.88;101167.38;5074097;27;46380;-72
2022/10/17 03:17:24;;;;;;;;;6.50;6.00;;;;;19.76;81.15;101158.56;5072764;28;45416;-72
2022/10/17 03:19:49;;;;;;;;;6.50;6.50;;;;;19.76;81.18;101158.56;5074488;27;45487;-72
2022/10/17 03:22:15;;;;;;;;;6.75;6.75;;;;;19.77;80.98;101157.59;5074278;27;45345;-72
2022/10/17 03:24:40;;;;;;;;;9.25;7.00;;;;;19.79;81.03;101166.41;5073703;27;45418;-72
2022/10/17 03:27:05;;;;;;;;;6.25;6.25;;;;;19.78;80.68;101161.13;5074089;27;45408;-72
2022/10/17 03:29:31;;;;;;;;;7.25;7.00;;;;;19.46;80.60;101118.94;5074494;27;45435;-72
2022/10/17 03:31:56;;;;;;;;;5.00;4.00;;;;;19.74;80.40;101182.19;5074095;27;45311;-71
2022/10/17 03:34:21;;;;;;;;;8.25;6.00;;;;;19.42;80.14;101137.31;5072903;28;46232;-71
2022/10/17 03:36:47;;;;;;;;;7.00;6.50;;;;;19.77;80.71;101200.00;5073754;27;45389;-72
2022/10/17 03:39:13;;;;;;;;;7.00;5.75;;;;;19.79;80.33;101198.03;5072430;28;45346;-72
2022/10/17 03:41:38;;;;;;;;;3.00;3.00;;;;;19.58;80.68;101165.66;5072948;28;45274;-72
2022/10/17 03:44:04;;;;;;;;;6.00;6.00;;;;;19.80;80.82;101202.47;5073087;27;45401;-72
2022/10/17 03:46:29;;;;;;;;;7.50;5.75;;;;;19.81;80.32;101218.59;5072702;27;45798;-72
2022/10/17 03:48:54;;;;;;;;;5.00;5.00;;;;;19.81;80.58;101205.06;5086152;27;45346;-72
2022/10/17 03:51:20;;;;;;;;;9.00;6.00;;;;;19.82;80.69;101205.91;5053505;28;45407;-73
2022/10/17 03:53:45;;;;;;;;;6.25;5.25;;;;;19.64;80.21;101175.94;5055145;28;45865;-73
2022/10/17 03:56:21;;;;;;;;;9.00;6.50;;;;;19.82;80.37;101217.56;5057261;28;45423;-73
2022/10/17 03:58:47;;;;;;;;;6.75;6.75;;;;;19.62;80.08;101178.78;5067561;28;45500;-73
2022/10/17 04:01:14;;;;;;;;;7.75;7.00;;;;;19.72;79.97;101202.28;5077383;27;45474;-73
2022/10/17 04:03:40;;;;;;;;;5.75;5.00;;;;;19.79;79.94;101209.72;5076463;28;46838;-73
2022/10/17 04:06:06;;;;;;;;;8.50;7.50;;;;;19.79;79.96;101223.25;5077311;27;45384;-73
2022/10/17 04:08:32;;;;;;;;;4.75;4.75;;;;;19.55;79.69;101180.31;5076839;27;45299;-73
2022/10/17 04:10:59;;;;;;;;;6.00;5.75;;;;;19.70;79.45;101202.44;5077352;27;45305;-73
2022/10/17 04:13:25;;;;;;;;;3.00;3.00;;;;;19.78;79.98;101221.53;5075867;28;45603;-73
2022/10/17 04:16:02;;;;;;;;;5.33;5.33;;;;;19.81;79.93;101223.13;5077555;28;45290;-73
2022/10/17 04:18:28;;;;;;;;;6.00;6.00;;;;;19.28;79.18;101149.34;5077743;27;45367;-73
2022/10/17 04:20:53;;;;;;;;;5.75;5.75;;;;;19.75;79.33;101220.97;5076062;27;45401;-73
2022/10/17 04:23:19;;;;;;;;;6.00;6.00;;;;;19.76;79.48;101234.34;5075534;28;45401;-73
2022/10/17 04:25:45;;;;;;;;;6.25;6.00;;;;;19.63;79.28;101214.81;5076430;27;45306;-73
2022/10/17 04:28:11;;;;;;;;;4.00;4.00;;;;;19.75;79.04;101242.63;5077405;27;45367;-74
2022/10/17 04:30:37;;;;;;;;;6.00;6.00;;;;;19.70;79.10;101223.22;5076474;27;45403;-73
2022/10/17 04:33:02;;;;;;;;;9.00;9.00;;;;;19.76;79.37;101239.78;5072260;28;45402;-74
2022/10/17 04:35:27;;;;;;;;;5.00;5.00;;;;;19.74;79.27;101236.34;5076148;28;45495;-74
2022/10/17 04:37:53;;;;;;;;;8.00;6.00;;;;;19.74;79.13;101244.44;5077232;27;45274;-73
2022/10/17 04:40:19;;;;;;;;;5.00;5.00;;;;;19.74;79.12;101260.69;5076495;27;45532;-73
2022/10/17 04:42:45;;;;;;;;;10.50;8.50;;;;;19.74;78.94;101249.03;5077242;27;45426;-73
2022/10/17 04:45:10;;;;;;;;;7.50;6.25;;;;;19.77;78.78;101271.25;5076199;28;45376;-73
2022/10/17 04:47:36;;;;;;;;;4.50;4.25;;;;;19.78;79.07;101261.28;5074074;28;45468;-73
2022/10/17 04:50:01;;;;;;;;;6.00;4.75;;;;;19.78;78.97;101250.44;5076093;28;45421;-73
2022/10/17 04:52:26;;;;;;;;;4.75;4.75;;;;;19.78;78.50;101259.41;5057843;28;45525;-73
2022/10/17 04:54:52;;;;;;;;;6.75;5.50;;;;;19.80;78.59;101262.00;5056175;28;45476;-73
2022/10/17 04:57:18;;;;;;;;;6.25;6.25;;;;;19.52;78.52;101209.53;5056178;28;45413;-73
2022/10/17 04:59:44;;;;;;;;;4.67;4.67;;;;;19.83;78.17;101281.56;5075594;28;45451;-74
2022/10/17 05:02:10;;;;;;;;;5.25;5.25;;;;;19.77;77.84;101263.16;5076871;27;46217;-75
2022/10/17 05:04:35;;;;;;;;;9.00;6.50;;;;;19.82;78.90;101287.09;5076587;27;45337;-76
2022/10/17 05:07:00;;;;;;;;;6.00;5.25;;;;;19.77;78.22;101273.09;5077361;27;45832;-75
2022/10/17 05:09:26;;;;;;;;;4.75;4.75;;;;;19.76;78.73;101295.72;5077316;27;45357;-76
2022/10/17 05:11:52;;;;;;;;;9.00;7.00;;;;;19.44;79.22;101246.22;5076910;28;46112;-76
2022/10/17 05:14:17;;;;;;;;;5.00;5.00;;;;;19.76;79.21;101310.16;5075453;28;45325;-76
2022/10/17 05:16:43;;;;;;;;;7.75;5.50;;;;;19.77;79.91;101311.88;5077212;27;45277;-76
2022/10/17 05:19:08;;;;;;;;;8.00;6.75;;;;;19.69;80.17;101292.72;5075457;28;45338;-77
2022/10/17 05:21:36;;;;;;;;;8.25;5.75;;;;;19.77;80.48;101302.88;5076923;27;45341;-76
2022/10/17 05:24:04;;;;;;;;;5.00;5.00;;;;;19.67;79.89;101298.28;5076748;27;45355;-76
2022/10/17 05:26:29;;;;;;;;;6.75;6.00;;;;;19.70;80.94;101296.31;5076745;27;45450;-76
2022/10/17 05:28:55;;;;;;;;;6.25;5.50;;;;;19.68;80.25;101293.75;5076301;27;45353;-76
2022/10/17 05:31:20;;;;;;;;;7.75;5.25;;;;;19.67;80.34;101308.25;5074894;28;45366;-76
2022/10/17 05:33:45;;;;;;;;;5.50;5.50;;;;;19.67;81.65;101310.97;5076333;27;45420;-76
2022/10/17 05:36:11;;;;;;;;;10.00;6.00;;;;;19.17;81.30;101226.03;5076316;27;45336;-76
2022/10/17 05:38:36;;;;;;;;;7.00;7.00;;;;;19.62;81.29;101303.25;5076379;27;45289;-74
2022/10/17 05:41:04;;;;;;;;;6.00;5.00;;;;;19.64;81.72;101297.72;5076255;27;45671;-73
2022/10/17 05:43:30;;;;;;;;;8.75;5.75;;;;;19.57;81.76;101301.94;5076335;27;45299;-73
2022/10/17 05:45:56;;;;;;;;;5.00;5.00;;;;;19.21;82.18;101245.56;5075952;28;45457;-73
2022/10/17 05:48:22;;;;;;;;;6.50;6.50;;;;;19.59;81.81;101314.34;5075591;27;45531;-74
2022/10/17 05:50:48;;;;;;;;;6.00;6.00;;;;;19.37;83.13;101284.75;5075916;27;45724;-75
2022/10/17 05:53:14;;;;;;;;;7.00;5.25;;;;;19.52;83.73;101318.59;5075043;28;45465;-75
2022/10/17 05:55:39;;;;;;;;;8.50;6.00;;;;;19.49;85.24;101314.31;5074510;27;45433;-69
2022/10/17 05:58:04;;;;;;;;;6.75;6.75;;;;;19.47;86.12;101305.44;5075317;28;45602;-72
2022/10/17 06:00:30;;;;;;;;;10.50;8.75;;;;;19.39;86.41;101277.38;5074488;28;47068;-73
2022/10/17 06:02:55;;;;;;;;;10.00;9.00;;;;;19.47;87.14;101301.91;5075277;27;45419;-72
2022/10/17 06:05:20;;;;;;;;;8.00;8.00;;;;;18.66;86.66;101159.31;5075731;27;46001;-72
2022/10/17 06:07:48;;;;;;;;;11.00;10.00;;;;;19.04;86.97;101220.00;5075452;27;45388;-72
2022/10/17 06:10:15;;;;;;;;;8.00;7.75;;;;;19.43;87.48;101290.50;5074945;27;47110;-70
2022/10/17 06:12:41;;;;;;;;;8.25;6.75;;;;;19.39;87.80;101278.22;5074885;27;45331;-72
2022/10/17 06:15:07;;;;;;;;;7.75;7.75;;;;;19.38;87.40;101284.66;5074754;28;45533;-71
2022/10/17 06:17:32;;;;;;;;;8.75;8.75;;;;;19.36;87.13;101302.84;5073099;28;45373;-72
2022/10/17 06:19:58;;;;;;;;;7.50;7.00;;;;;19.34;87.29;101304.84;5074876;27;45380;-71
2022/10/17 06:22:23;;;;;;;;;10.00;8.25;;;;;18.91;86.99;101240.97;5075280;27;45382;-70
2022/10/17 06:24:48;;;;;;;;;9.00;7.00;;;;;19.30;86.90;101323.19;5074326;27;45537;-70
2022/10/17 06:27:14;;;;;;;;;6.00;6.00;;;;;19.23;86.80;101326.56;5074662;27;45516;-71
2022/10/17 06:29:39;;;;;;;;;8.00;6.00;;;;;19.25;87.01;101332.69;5074623;27;45479;-70
2022/10/17 06:32:05;;;;;;;;;8.00;6.00;;;;;19.10;86.67;101319.50;5074736;27;45424;-70
2022/10/17 06:34:31;;;;;;;;;10.25;9.50;;;;;19.15;87.14;101325.38;5074531;27;45396;-70
2022/10/17 06:36:56;;;;;;;;;7.00;7.00;;;;;19.16;86.98;101351.44;5065995;28;45337;-69
2022/10/17 06:39:22;;;;;;;;;9.25;7.50;;;;;19.15;86.87;101344.31;5053901;28;46345;-69
2022/10/17 06:41:47;;;;;;;;;7.25;6.50;;;;;19.17;87.56;101344.16;5054547;28;45297;-70
2022/10/17 06:44:13;;;;;;;;;10.00;8.00;;;;;19.05;87.17;101327.16;5054488;28;45339;-68
2022/10/17 06:46:39;;;;;;;;;8.75;8.50;;;;;19.17;87.69;101350.44;5061378;28;45404;-75
2022/10/17 06:49:06;;;;;;;;;8.75;8.25;;;;;19.22;87.72;101368.09;5076653;27;46292;-74
2022/10/17 06:51:34;;;;;;;;;11.25;8.50;;;;;19.22;87.90;101377.09;5075390;28;45381;-77
2022/10/17 06:54:00;;;;;;;;;7.50;7.50;;;;;19.24;88.59;101385.06;5074884;28;45530;-76
2022/10/17 06:56:25;;;;;;;;;8.50;7.00;;;;;19.25;88.69;101393.03;5075381;28;45342;-75
2022/10/17 06:58:51;;;;;;;;;6.00;5.75;;;;;19.14;87.86;101374.19;5075950;28;45615;-76
2022/10/17 07:01:17;;;;;;;;;6.50;5.75;;;;;19.17;87.84;101377.47;5074706;28;45444;-76
2022/10/17 07:03:42;;;;;;;;;4.00;4.00;;;;;19.15;87.33;101392.09;5074866;28;45371;-76
2022/10/17 07:06:11;;;;;;;;;9.00;9.00;;;;;19.27;87.15;101411.84;5075231;28;45252;-76
2022/10/17 07:08:40;;;;;;;;;7.50;7.50;;;;;19.29;87.51;101426.09;5075109;28;45656;-75
2022/10/17 07:11:14;;;;;;;;;8.25;7.00;;;;;19.27;86.88;101422.66;5074688;28;45477;-75
2022/10/17 07:13:40;;;;;;;;;8.00;8.00;;;;;19.24;87.89;101444.56;5074949;28;45565;-76
2022/10/17 07:16:05;;;;;;;;;6.00;6.00;;;;;19.25;87.65;101451.69;5076329;28;45302;-75
2022/10/17 07:18:31;;;;;;;;;8.75;7.50;;;;;19.30;87.22;101452.13;5075157;28;45408;-75
2022/10/17 07:20:56;;;;;;;;;9.50;7.00;;;;;19.37;87.59;101458.75;5075655;28;45434;-76
2022/10/17 07:23:22;;;;;;;;;7.25;7.25;;;;;19.38;86.82;101465.91;5074551;28;45330;-77
2022/10/17 07:25:47;;;;;;;;;7.50;6.00;;;;;19.22;86.40;101446.53;5074926;27;45406;-76
2022/10/17 07:28:14;;;;;;;;;8.75;7.50;;;;;19.38;86.51;101474.00;5076750;27;46270;-76
2022/10/17 07:30:40;;;;;;;;;5.50;5.50;;;;;19.43;86.65;101479.84;5070062;27;45642;-77
2022/10/17 07:33:05;;;;;;;;;8.75;8.75;;;;;19.46;86.18;101498.56;5075843;28;45448;-76
2022/10/17 07:35:31;;;;;;;;;9.25;7.00;;;;;19.44;86.89;101492.41;5075764;27;45512;-76
2022/10/17 07:37:56;;;;;;;;;8.00;8.00;;;;;19.51;86.83;101498.16;5074607;27;47232;-77
2022/10/17 07:40:22;;;;;;;;;8.00;7.50;;;;;19.60;86.32;101507.34;5075875;28;46385;-76
2022/10/17 07:42:47;;;;;;;;;8.75;8.00;;;;;19.60;85.81;101507.34;5076841;28;45290;-76
2022/10/17 07:45:12;;;;;;;;;7.25;7.25;;;;;19.57;86.29;101511.16;5079141;28;45544;-76
2022/10/17 07:47:38;;;;;;;;;7.00;7.00;;;;;19.59;85.76;101509.19;5079036;28;47005;-76
2022/10/17 07:50:04;;;;;;;;;5.75;4.75;;;;;19.60;85.79;101515.47;5073090;27;45343;-75
2022/10/17 07:52:30;;;;;;;;;7.00;6.50;;;;;19.62;86.29;101522.47;5078043;28;46153;-75
2022/10/17 07:54:55;;;;;;;;;7.25;7.25;;;;;19.62;85.50;101518.88;5079144;28;45509;-75
2022/10/17 07:57:21;;;;;;;;;6.75;6.75;;;;;19.63;85.60;101531.44;5080140;28;45504;-74
2022/10/17 07:59:47;;;;;;;;;5.75;5.75;;;;;19.63;85.87;101542.25;5080261;28;44756;-74
2022/10/17 08:02:21;;;;;;;;;7.50;7.25;;;;;19.31;86.20;101497.13;5079825;27;45333;-75
2022/10/17 08:04:46;;;;;;;;;7.50;4.75;;;;;19.67;85.99;101558.09;5080751;27;45579;-76
2022/10/17 08:07:12;;;;;;;;;6.00;5.25;;;;;19.67;85.84;101559.94;5078014;27;50219;-75
2022/10/17 08:09:37;;;;;;;;;5.50;5.25;;;;;19.67;85.93;101562.66;5078287;27;45337;-75
2022/10/17 08:12:02;;;;;;;;;6.00;6.00;;;;;19.67;85.12;101562.66;5078719;27;45461;-75
2022/10/17 08:14:28;;;;;;;;;7.00;6.00;;;;;19.71;85.76;101565.97;5079323;28;45289;-75
2022/10/17 08:16:54;;;;;;;;;8.00;8.00;;;;;19.74;86.14;101573.81;5061163;27;46309;-75
2022/10/17 08:19:19;;;;;;;;;10.00;7.75;;;;;19.73;85.57;101578.38;5057262;27;45429;-73
2022/10/17 08:21:45;;;;;;;;;10.00;6.75;;;;;19.31;85.55;101503.44;5058003;28;45267;-76
2022/10/17 08:24:11;;;;;;;;;8.00;5.25;;;;;19.21;85.20;101482.69;5071801;28;45658;-76
2022/10/17 08:26:36;;;;;;;;;8.00;6.50;;;;;19.66;84.86;101555.50;5076744;27;46236;-74
2022/10/17 08:29:02;;;;;;;;;4.00;4.00;;;;;19.93;85.16;101586.66;5078002;27;45369;-75
2022/10/17 08:31:27;;;;;;;;;6.25;6.25;;;;;19.94;85.03;101586.53;5077142;28;45393;-75
2022/10/17 08:33:53;;;;;;;;;7.75;6.00;;;;;19.96;85.14;101591.81;5077963;27;45302;-75
2022/10/17 08:36:20;;;;;;;;;6.25;6.25;;;;;20.02;84.88;101601.28;5076017;28;45627;-75
2022/10/17 08:38:45;;;;;;;;;2.50;2.50;;;;;20.04;84.71;101601.97;5077085;27;45436;-75
2022/10/17 08:41:26;;;;;;;;;7.50;7.50;;;;;20.06;84.42;101608.16;5077278;27;45472;-75
2022/10/17 08:44:19;;;;;;;;;5.75;4.25;;;;;20.07;84.79;101616.13;5078098;27;45560;-75
2022/10/17 08:46:48;;;;;;;;;5.50;4.25;;;;;20.14;84.56;101606.47;5078013;28;45358;-75
2022/10/17 08:49:24;;;;;;;;;4.75;4.50;;;;;19.64;84.00;101512.34;5093991;27;45754;-74
2022/10/17 08:51:54;;;;;;;;;4.50;4.50;;;;;20.28;84.10;101618.81;5079412;27;45622;-75
2022/10/17 08:54:30;;;;;;;;;5.50;5.25;;;;;20.27;83.92;101616.25;5079349;27;45337;-75
2022/10/17 08:56:56;;;;;;;;;4.75;3.75;;;;;20.25;83.58;101635.34;5078092;27;46392;-74
2022/10/17 08:59:28;;;;;;;;;7.25;6.25;;;;;20.09;83.61;101594.31;5078601;27;45722;-74
2022/10/17 09:02:13;;;;;;;;;5.75;5.25;;;;;20.32;83.37;101635.66;5076591;27;45344;-74
2022/10/17 09:05:00;;;;;;;;;4.25;4.25;;;;;20.34;83.75;101644.53;5077026;28;45317;-74
2022/10/17 09:08:11;;;;;;;;;7.00;7.00;;;;;20.30;84.34;101638.50;5076756;28;46213;-74
2022/10/17 09:10:42;;;;;;;;;5.50;4.75;;;;;20.29;84.19;101657.63;5053655;28;45454;-74
2022/10/17 09:13:23;;;;;;;;;5.00;5.00;;;;;20.12;84.67;101632.84;5054093;28;45496;-74
2022/10/17 09:16:28;;;;;;;;;4.50;4.50;;;;;20.32;84.59;101681.72;5034295;28;45931;-74
2022/10/17 09:19:06;;;;;;;;;6.67;5.67;;;;;19.89;84.68;101618.53;5053973;28;46086;-74
2022/10/17 09:21:46;;;;;;;;;5.00;5.00;;;;;20.21;85.33;101676.38;5053710;28;45421;-73
2022/10/17 09:24:41;;;;;;;;;3.25;3.25;;;;;20.19;85.56;101683.75;5053270;28;45522;-75
2022/10/17 09:27:22;;;;;;;;;5.50;5.50;;;;;20.06;86.42;101668.56;4993764;28;45609;-74
2022/10/17 09:29:51;;;;;;;;;7.25;6.00;;;;;20.20;86.04;101690.91;4993190;28;45686;-74
2022/10/17 09:32:21;;;;;;;;;6.75;3.50;;;;;20.21;86.69;101706.19;4974796;28;45558;-73
2022/10/17 09:34:47;;;;;;;;;7.50;5.00;;;;;19.19;86.06;101554.97;4976181;28;45394;-74
2022/10/17 09:37:14;;;;;;;;;7.00;5.25;;;;;20.24;86.58;101714.03;4993456;28;45461;-74
2022/10/17 09:39:41;;;;;;;;;8.25;6.00;;;;;20.16;87.46;101703.84;4993916;28;45478;-75
2022/10/17 09:42:12;;;;;;;;;8.00;7.00;;;;;20.10;88.26;101709.81;4994087;28;45416;-77
2022/10/17 09:44:50;;;;;;;;;7.50;6.50;;;;;20.08;88.02;101718.06;5004059;28;45535;-77
2022/10/17 09:47:30;;;;;;;;;6.00;6.00;;;;;19.87;89.63;101669.28;4998926;28;45512;-78
2022/10/17 09:49:56;;;;;;;;;6.50;5.75;;;;;20.11;89.34;101720.50;5015493;28;45461;-77
2022/10/17 09:52:39;;;;;;;;;5.50;5.50;;;;;20.11;90.30;101708.78;5015354;28;45288;-76
2022/10/17 09:55:19;;;;;;;;;8.75;5.75;;;;;20.22;89.77;101730.41;5015979;28;45444;-75
2022/10/17 09:57:50;;;;;;;;;9.00;6.75;;;;;20.25;89.76;101727.44;5015785;28;46287;-77
2022/10/17 10:00:28;;;;;;;;;5.00;5.00;;;;;20.23;94.21;101726.72;4999642;28;47092;-77
2022/10/17 10:03:20;;;;;;;;;7.75;7.75;;;;;20.19;92.79;101724.41;4999300;28;45493;-76
2022/10/17 10:06:26;;;;;;;;;11.25;10.25;;;;;20.21;91.50;101731.41;5069384;28;45453;-76
2022/10/17 10:08:54;;;;;;;;;12.75;10.50;;;;;20.26;91.28;101725.59;5077926;27;45295;-76
2022/10/17 10:11:42;;;;;;;;;12.50;10.25;;;;;20.18;90.65;101728.97;5078470;27;47122;-76
2022/10/17 10:14:20;;;;;;;;;11.00;10.25;;;;;20.19;91.91;101729.81;5057034;27;45558;-75
2022/10/17 10:16:47;;;;;;;;;5.50;5.50;;;;;20.12;91.74;101738.47;5057146;28;45268;-75
2022/10/17 10:19:23;;;;;;;;;6.50;5.50;;;;;20.02;91.87;101721.28;5057635;28;45496;-75
2022/10/17 10:21:56;;;;;;;;;7.75;6.75;;;;;20.09;91.60;101735.16;5056819;28;45468;-75
2022/10/17 10:24:22;;;;;;;;;7.50;7.50;;;;;20.08;92.30;101742.44;5057187;28;45411;-76
2022/10/17 10:26:49;;;;;;;;;6.75;6.75;;;;;20.00;92.88;101734.06;5055720;28;45413;-74
2022/10/17 10:29:29;;;;;;;;;10.75;9.25;;;;;20.11;93.01;101752.13;5056997;28;45634;-75
2022/10/17 10:32:05;;;;;;;;;7.75;6.75;;;;;20.13;92.62;101751.00;5057190;28;46280;-75
2022/10/17 10:34:31;;;;;;;;;7.75;7.75;;;;;20.17;93.50;101751.63;5057133;28;45480;-76
2022/10/17 10:37:01;;;;;;;;;8.50;7.50;;;;;20.21;93.70;101768.47;5057472;28;45390;-75
2022/10/17 10:39:44;;;;;;;;;9.00;8.75;;;;;20.23;93.33;101774.63;5056328;28;45516;-76
2022/10/17 10:42:19;;;;;;;;;9.25;8.00;;;;;20.24;93.68;101793.44;5056688;28;46447;-75
2022/10/17 10:44:45;;;;;;;;;9.25;8.50;;;;;20.17;93.75;101790.38;5057080;28;45409;-75
2022/10/17 10:47:19;;;;;;;;;7.00;7.00;;;;;20.22;94.88;101789.13;5056812;28;45453;-75
2022/10/17 10:49:44;;;;;;;;;7.50;6.75;;;;;19.99;95.03;101754.03;5056753;28;45468;-76
2022/10/17 10:52:24;;;;;;;;;8.50;8.00;;;;;20.24;95.26;101796.16;5055072;28;45565;-76
2022/10/17 10:54:58;;;;;;;;;9.00;9.00;;;;;20.25;95.51;101797.88;5061005;27;45424;-77
2022/10/17 10:57:29;;;;;;;;;8.00;8.00;;;;;20.27;95.50;101806.75;5076576;28;45429;-76
2022/10/17 10:59:57;;;;;;;;;9.25;8.00;;;;;20.28;95.17;101813.88;5057407;28;45602;-75
2022/10/17 11:02:29;;;;;;;;;7.00;7.00;;;;;20.27;94.95;101811.28;5055888;28;45479;-75
2022/10/17 11:05:00;;;;;;;;;9.00;7.00;;;;;20.27;94.37;101819.41;5056856;28;45457;-77
2022/10/17 11:07:33;;;;;;;;;8.75;6.00;;;;;20.25;95.36;101813.28;5069364;28;45436;-77
2022/10/17 11:10:11;;;;;;;;;10.50;7.75;;;;;20.28;94.59;101815.72;5092188;27;45445;-75
2022/10/17 11:12:50;;;;;;;;;14.00;12.50;;;;;20.30;95.71;101811.06;5076036;27;45744;-75
2022/10/17 11:16:00;;;;;;;;;12.50;10.00;;;;;20.36;95.59;101799.69;5076240;27;45446;-74
2022/10/17 11:18:34;;;;;;;;;12.00;12.00;;;;;20.41;96.45;101797.44;5015103;28;45428;-74
2022/10/17 11:21:04;;;;;;;;;12.00;12.00;;;;;20.40;95.56;101801.16;5015304;28;45454;-73
2022/10/17 11:23:58;;;;;;;;;9.50;8.25;;;;;20.24;94.59;101763.66;5015404;28;45458;-74
2022/10/17 11:26:30;;;;;;;;;10.25;9.25;;;;;20.50;94.94;101818.34;5015489;28;45479;-74
2022/10/17 11:29:00;;;;;;;;;11.00;11.00;;;;;20.55;95.03;101822.53;5014199;28;45528;-73
2022/10/17 11:31:30;;;;;;;;;9.50;8.50;;;;;20.59;94.82;101821.28;5013990;28;45544;-75
2022/10/17 11:34:34;;;;;;;;;9.25;8.25;;;;;20.62;95.30;101827.31;5014079;28;45663;-73
2022/10/17 11:37:06;;;;;;;;;10.75;10.75;;;;;20.63;95.37;101834.41;4974663;28;45358;-73
2022/10/17 11:39:48;;;;;;;;;7.25;7.25;;;;;20.62;94.28;101831.84;4974945;28;45392;-73